tititudorancea.com
Station Historical Data
Daily Summary for February 24, 2018 Units:  Metric    English   Both
« Previous Day
Next Day »
Daily Weekly Monthly Yearly Custom
  High: Low: Average:
Temperature: -17.8 °C 13.2 °C 20.4 °C
Dew Point: -17.8 °C 10.8 °C 15 °C
Humidity: Humidity % 51 % 72 %
Wind Speed: 0 km/h 0 km/h 10.8 km/h
Wind Gust: 0 km/h - -
Wind:- - WSW
Pressure: 0 hPa 999.2 hPa -
Precipitation: 0 mm    
Historical Graphs
 
 
Ararat weather Find more about Weather in Ararat, AU


 



 


Tabular Data for February 24, 2018
Time Temperature Dew Point Pressure Wind Wind Speed Wind Gust Humidity Rainfall Rate (Hourly)
-17.8 °C -17.8 °C 0 hPa Calm     Humidity % 0 mm
00:02 24.7 °C 18.2 °C 1001.6 hPa NNW 2.6 km/h 5.6 km/h 67 % 0 mm
00:08 24.8 °C 18.2 °C 1001.6 hPa NNW 4.7 km/h 5.6 km/h 67 % 0 mm
00:13 24.8 °C 18.2 °C 1001.6 hPa NNW 3.9 km/h 5.6 km/h 67 % 0 mm
00:18 24.8 °C 18 °C 1001.6 hPa North 4.2 km/h 4.2 km/h 66 % 0 mm
00:23 24.7 °C 17.9 °C 1001.6 hPa North 2.6 km/h 5.6 km/h 66 % 0 mm
00:28 24.7 °C 18.1 °C 1001.6 hPa NNW 0.8 km/h 5.6 km/h 67 % 0 mm
00:33 24.6 °C 18.3 °C 1001.6 hPa NNW 1 km/h 3.7 km/h 68 % 0 mm
00:38 24.4 °C 18.4 °C 1001.6 hPa NNW 0.5 km/h 3.7 km/h 69 % 0 mm
00:43 24.3 °C 18.3 °C 1001.2 hPa Calm   1.9 km/h 69 % 0 mm
00:48 24.2 °C 18.4 °C 1001.2 hPa NNW 2.7 km/h 5.6 km/h 70 % 0 mm
00:53 24.2 °C 18.3 °C 1001.2 hPa North 3.2 km/h 3.7 km/h 70 % 0 mm
00:57 24.2 °C 18.4 °C 1001.2 hPa NNW 0.2 km/h 1.9 km/h 70 % 0 mm
01:02 24.2 °C 18.1 °C 1001.2 hPa NNW 3.9 km/h 5.6 km/h 69 % 0 mm
01:08 24.2 °C 17.9 °C 1001.2 hPa NNW 4.7 km/h 5.6 km/h 68 % 0 mm
01:13 24.3 °C 18.1 °C 1000.9 hPa NNW 2.6 km/h 3.7 km/h 68 % 0 mm
01:18 24.4 °C 18.1 °C 1000.9 hPa NNW 1.4 km/h 3.7 km/h 68 % 0 mm
01:23 24.5 °C 17.9 °C 1000.9 hPa North 2.1 km/h 3.7 km/h 67 % 0 mm
01:28 24.5 °C 17.9 °C 1000.9 hPa NNW 2.4 km/h 3.7 km/h 67 % 0 mm
01:33 24.5 °C 17.9 °C 1000.9 hPa NNW 4.3 km/h 5.6 km/h 67 % 0 mm
01:38 24.5 °C 17.9 °C 1000.9 hPa NNW 4 km/h 6.4 km/h 67 % 0 mm
01:43 24.7 °C 17.9 °C 1000.9 hPa North 4.3 km/h 6.4 km/h 66 % 0 mm
01:48 24.7 °C 17.9 °C 1000.6 hPa NNW 1.3 km/h 3.7 km/h 66 % 0 mm
01:53 24.7 °C 17.9 °C 1000.9 hPa NW 4.8 km/h 6.4 km/h 66 % 0 mm
01:58 24.8 °C 17.8 °C 1000.6 hPa NNW 3.9 km/h 5.6 km/h 65 % 0 mm
02:03 24.9 °C 17.6 °C 1000.6 hPa NNW 4.5 km/h 5.6 km/h 64 % 0 mm
02:08 24.9 °C 17.7 °C 1000.6 hPa NNW 5.1 km/h 7.4 km/h 64 % 0 mm
02:13 24.9 °C 17.6 °C 1000.6 hPa North 5.3 km/h 5.6 km/h 64 % 0 mm
02:18 24.9 °C 17.7 °C 1000.2 hPa NNW 2.6 km/h 5.6 km/h 64 % 0 mm
02:23 24.9 °C 17.3 °C 1000.2 hPa Calm     63 % 0 mm
02:28 24.9 °C 17.2 °C 1000.6 hPa North 4.5 km/h 5.6 km/h 62 % 0 mm
02:33 25.1 °C 17.3 °C 1000.6 hPa NNW 6.8 km/h 7.4 km/h 62 % 0 mm
02:38 25.1 °C 17.3 °C 1000.2 hPa North 1.8 km/h 3.7 km/h 62 % 0 mm
02:43 25 °C 17.2 °C 1000.2 hPa North 1.8 km/h 3.7 km/h 62 % 0 mm
02:48 24.9 °C 17.2 °C 1000.2 hPa NNW 4 km/h 5.6 km/h 62 % 0 mm
02:53 24.8 °C 17.3 °C 1000.2 hPa NNW 1.3 km/h 3.7 km/h 63 % 0 mm
02:58 24.7 °C 17.2 °C 999.9 hPa NNW 0.3 km/h 1.9 km/h 63 % 0 mm
03:03 24.6 °C 17.1 °C 999.9 hPa North 0.2 km/h 1.9 km/h 63 % 0 mm
03:08 24.5 °C 17 °C 999.9 hPa North 1.1 km/h 3.7 km/h 63 % 0 mm
03:13 24.5 °C 17 °C 999.9 hPa NNW 2.1 km/h 3.7 km/h 63 % 0 mm
03:18 24.4 °C 16.7 °C 999.5 hPa North 4.5 km/h 5.6 km/h 62 % 0 mm
03:23 24.6 °C 16.6 °C 999.5 hPa NNW 3.5 km/h 5.6 km/h 61 % 0 mm
03:28 24.7 °C 16.4 °C 999.5 hPa NNW 2.6 km/h 7.4 km/h 60 % 0 mm
03:33 24.8 °C 16.2 °C 999.9 hPa NNW 3.1 km/h 5.6 km/h 59 % 0 mm
03:38 24.8 °C 15.7 °C 999.5 hPa NNW 4.3 km/h 6.4 km/h 57 % 0 mm
03:43 25 °C 15.6 °C 999.5 hPa NNW 3.1 km/h 5.6 km/h 56 % 0 mm
03:48 25.1 °C 15.4 °C 999.5 hPa NNW 2.9 km/h 5.6 km/h 55 % 0 mm
03:53 25.2 °C 14.9 °C 999.5 hPa NNW 4.5 km/h 5.6 km/h 53 % 0 mm
03:58 25.2 °C 14.9 °C 999.5 hPa NNW 4.5 km/h 5.6 km/h 53 % 0 mm
04:03 25.3 °C 14.7 °C 999.5 hPa NNW 4.2 km/h 7.4 km/h 52 % 0 mm
04:08 25.3 °C 14.8 °C 999.5 hPa NNW 4.7 km/h 5.6 km/h 52 % 0 mm
04:18 25.2 °C 14.7 °C 999.5 hPa NNW 4.8 km/h 7.4 km/h 52 % 0 mm
04:23 25.1 °C 14.3 °C 999.5 hPa NNW 6.4 km/h 11.1 km/h 51 % 0 mm
04:28 25.1 °C 14.3 °C 999.5 hPa NNW 4.8 km/h 5.6 km/h 51 % 0 mm
04:33 25.1 °C 14.5 °C 999.5 hPa NNW 6 km/h 7.4 km/h 52 % 0 mm
04:38 24.8 °C 14.9 °C 999.5 hPa North 6.1 km/h 7.4 km/h 54 % 0 mm
04:43 24.6 °C 14.9 °C 999.5 hPa NNW 4.8 km/h 5.6 km/h 55 % 0 mm
04:48 24.4 °C 14.8 °C 999.5 hPa NNW 6 km/h 7.4 km/h 55 % 0 mm
04:53 24.4 °C 14.5 °C 999.2 hPa NNW 6 km/h 7.4 km/h 54 % 0 mm
04:58 24.3 °C 14.4 °C 999.2 hPa NNW 3.7 km/h 7.4 km/h 54 % 0 mm
05:03 24.3 °C 14.4 °C 999.5 hPa North 5 km/h 6.4 km/h 54 % 0 mm
05:08 24.2 °C 14.3 °C 999.2 hPa North 4 km/h 5.6 km/h 54 % 0 mm
05:13 24.1 °C 14.2 °C 999.2 hPa NNW 4.5 km/h 7.4 km/h 54 % 0 mm
05:18 24.1 °C 14.2 °C 999.2 hPa NW 3.7 km/h 5.6 km/h 54 % 0 mm
05:23 24 °C 14.1 °C 999.5 hPa NNW 4.8 km/h 7.4 km/h 54 % 0 mm
05:28 23.9 °C 14.3 °C 999.5 hPa NNW 6.1 km/h 7.4 km/h 55 % 0 mm
05:33 23.8 °C 14.2 °C 999.5 hPa NNW 4.8 km/h 5.6 km/h 55 % 0 mm
05:38 23.7 °C 14.4 °C 999.5 hPa NNW 5 km/h 7.4 km/h 56 % 0 mm
05:43 23.7 °C 14.7 °C 999.5 hPa NNW 5.5 km/h 9.3 km/h 57 % 0 mm
05:48 23.7 °C 14.7 °C 999.5 hPa NNW 5.6 km/h 7.4 km/h 57 % 0 mm
05:53 23.7 °C 14.9 °C 999.5 hPa North 4.2 km/h 5.6 km/h 58 % 0 mm
05:58 23.7 °C 15.2 °C 999.5 hPa NNW 5 km/h 7.4 km/h 59 % 0 mm
06:03 23.8 °C 15.3 °C 999.9 hPa North 4.7 km/h 7.4 km/h 59 % 0 mm
06:08 23.7 °C 15.5 °C 999.5 hPa NNW 5.3 km/h 7.4 km/h 60 % 0 mm
06:13 23.6 °C 15.4 °C 999.9 hPa NNW 4.5 km/h 5.6 km/h 60 % 0 mm
06:18 23.4 °C 15.4 °C 999.9 hPa North 4.3 km/h 5.6 km/h 61 % 0 mm
06:23 23.3 °C 15.7 °C 999.9 hPa NNW 2.7 km/h 5.6 km/h 62 % 0 mm
06:28 23.2 °C 15.8 °C 999.9 hPa NNW 2.9 km/h 5.6 km/h 63 % 0 mm
06:33 23.1 °C 15.9 °C 999.9 hPa NNW 2.9 km/h 5.6 km/h 64 % 0 mm
06:38 22.9 °C 15.8 °C 999.9 hPa NNW 3.5 km/h 5.6 km/h 64 % 0 mm
06:43 22.8 °C 15.8 °C 999.9 hPa NNW 1.6 km/h 3.7 km/h 65 % 0 mm
06:53 22.5 °C 15.8 °C 999.9 hPa Calm   1.9 km/h 66 % 0 mm
06:58 22.4 °C 15.9 °C 1000.2 hPa NNW 0.2 km/h 1.9 km/h 67 % 0 mm
07:03 22.2 °C 16.1 °C 1000.2 hPa Calm     68 % 0 mm
07:08 22.1 °C 16.1 °C 1000.2 hPa Calm   1.9 km/h 69 % 0 mm
07:13 21.9 °C 16.2 °C 1000.2 hPa Calm   3.7 km/h 70 % 0 mm
07:18 21.7 °C 16 °C 1000.2 hPa NNW 0.8 km/h 3.7 km/h 70 % 0 mm
07:23 21.6 °C 16.1 °C 1000.6 hPa Calm     71 % 0 mm
07:28 21.4 °C 15.9 °C 1000.6 hPa Calm     71 % 0 mm
07:33 21.3 °C 16 °C 1000.6 hPa Calm     72 % 0 mm
07:38 21.1 °C 16.1 °C 1000.6 hPa NNW 1.6 km/h 5.6 km/h 73 % 0 mm
07:43 21 °C 16.2 °C 1000.6 hPa Calm     74 % 0 mm
07:48 21.1 °C 16.4 °C 1000.9 hPa Calm     75 % 0 mm
07:53 21.1 °C 16.7 °C 1000.9 hPa Calm     76 % 0 mm
07:58 21.3 °C 17.1 °C 1000.9 hPa Calm     77 % 0 mm
08:03 21.6 °C 17.3 °C 1000.9 hPa Calm     77 % 0 mm
08:09 21.9 °C 17.4 °C 1000.9 hPa Calm     76 % 0 mm
08:14 22.2 °C 17.6 °C 1001.2 hPa Calm     75 % 0 mm
08:19 22.6 °C 17.5 °C 1001.2 hPa Calm     73 % 0 mm
08:24 23.1 °C 17.7 °C 1001.2 hPa Calm     72 % 0 mm
08:29 23.4 °C 17.8 °C 1001.2 hPa Calm   1.9 km/h 71 % 0 mm
08:34 23.7 °C 17.9 °C 1001.2 hPa North 1.1 km/h 3.7 km/h 70 % 0 mm
08:39 23.9 °C 17.8 °C 1001.2 hPa Calm     69 % 0 mm
08:44 24.1 °C 17.8 °C 1001.2 hPa Calm     68 % 0 mm
08:49 24.3 °C 17.8 °C 1001.6 hPa Calm     67 % 0 mm
08:54 24.5 °C 17.9 °C 1001.6 hPa Calm     67 % 0 mm
08:59 24.9 °C 18.1 °C 1001.6 hPa Calm   1.9 km/h 66 % 0 mm
09:04 25.4 °C 18.3 °C 1001.6 hPa Calm     65 % 0 mm
09:09 25.7 °C 18.3 °C 1001.6 hPa North 0.3 km/h 1.9 km/h 64 % 0 mm
09:14 25.6 °C 18.6 °C 1001.6 hPa NNW 6.8 km/h 8 km/h 65 % 0 mm
09:19 25.3 °C 18.4 °C 1001.6 hPa WSW 12.2 km/h 14.8 km/h 66 % 0 mm
09:24 25 °C 18.4 °C 1001.6 hPa West 10 km/h 14.8 km/h 67 % 0 mm
09:29 24.9 °C 18.6 °C 1001.6 hPa West 8.5 km/h 11.1 km/h 68 % 0 mm
09:34 25.1 °C 18.7 °C 1001.6 hPa WSW 7.7 km/h 11.1 km/h 68 % 0 mm
09:44 25.2 °C 18.7 °C 1001.6 hPa North 12.9 km/h 18.5 km/h 67 % 0 mm
09:49 25.3 °C 19 °C 1001.6 hPa WSW 9 km/h 13 km/h 68 % 0 mm
09:54 25.3 °C 18.7 °C 1001.6 hPa WSW 9.3 km/h 13 km/h 67 % 0 mm
09:59 25.2 °C 18.9 °C 1001.6 hPa WSW 5.8 km/h 7.4 km/h 68 % 0 mm
10:04 25.3 °C 18.7 °C 1001.6 hPa WSW 8 km/h 11.1 km/h 67 % 0 mm
10:09 25.1 °C 18.8 °C 1001.6 hPa WSW 9.7 km/h 11.1 km/h 68 % 0 mm
10:14 25 °C 18.7 °C 1001.9 hPa WSW 11.3 km/h 14.5 km/h 68 % 0 mm
10:19 24.9 °C 18.8 °C 1001.9 hPa SW 11.1 km/h 14.8 km/h 69 % 0 mm
10:24 24.8 °C 18.4 °C 1001.9 hPa SW 9 km/h 16.7 km/h 68 % 0 mm
10:29 24.7 °C 18.6 °C 1001.9 hPa WSW 11.9 km/h 16.7 km/h 69 % 0 mm
10:34 24.7 °C 18.7 °C 1001.9 hPa SW 10 km/h 14.5 km/h 69 % 0 mm
10:39 24.6 °C 18.8 °C 1001.9 hPa SW 11.9 km/h 18.5 km/h 70 % 0 mm
10:44 24.4 °C 18.8 °C 1002.3 hPa SSW 10.5 km/h 14.8 km/h 71 % 0 mm
10:49 24.2 °C 18.6 °C 1002.3 hPa SW 10.6 km/h 18.5 km/h 71 % 0 mm
10:54 24 °C 18.8 °C 1002.3 hPa SW 16.6 km/h 20.4 km/h 73 % 0 mm
10:59 23.7 °C 18.8 °C 1002.3 hPa SW 11.6 km/h 14.8 km/h 74 % 0 mm
11:04 23.2 °C 18.7 °C 1002.3 hPa SSW 10.3 km/h 16.7 km/h 76 % 0 mm
11:09 22.9 °C 18.8 °C 1002.3 hPa SSW 10.5 km/h 16.7 km/h 78 % 0 mm
11:14 22.8 °C 18.8 °C 1002.3 hPa SSW 17.1 km/h 27.4 km/h 78 % 0 mm
11:19 22.6 °C 18.6 °C 1002.3 hPa SSW 17.2 km/h 24.1 km/h 78 % 0 mm
11:24 22.6 °C 18.8 °C 1002.3 hPa SSW 16.1 km/h 18.5 km/h 79 % 0 mm
11:29 22.6 °C 18.6 °C 1002.6 hPa SSW 14.6 km/h 24.1 km/h 78 % 0 mm
11:34 21.8 °C 18 °C 1002.6 hPa SSW 19 km/h 25.9 km/h 79 % 0 mm
11:39 21.1 °C 17.9 °C 1002.6 hPa SSW 14 km/h 18.5 km/h 82 % 0 mm
11:44 20.9 °C 17.9 °C 1002.6 hPa South 18.3 km/h 25.9 km/h 83 % 0 mm
11:49 20.4 °C 17.6 °C 1002.9 hPa South 15.4 km/h 20.4 km/h 84 % 0 mm
11:54 19.6 °C 16.9 °C 1002.9 hPa SW 19.3 km/h 29.6 km/h 85 % 0 mm
11:59 19.1 °C 16.8 °C 1003.3 hPa SSW 20 km/h 33.3 km/h 87 % 0 mm
12:04 18.7 °C 16.7 °C 1003.3 hPa North 17.2 km/h 25.9 km/h 88 % 0 mm
12:09 18.5 °C 16.8 °C 1003.6 hPa SW 22.5 km/h 29.6 km/h 90 % 0 mm
12:14 18.3 °C 16.8 °C 1003.6 hPa SSW 12.1 km/h 25.9 km/h 91 % 0 mm
12:19 18.1 °C 16.4 °C 1003.6 hPa SSW 23.5 km/h 33.3 km/h 90 % 0 mm
12:24 17.8 °C 16.3 °C 1003.6 hPa SW 20.4 km/h 27.8 km/h 91 % 0 mm
12:29 17.7 °C 16.2 °C 1003.6 hPa SSW 25.3 km/h 31.5 km/h 91 % 0 mm
12:34 17.5 °C 16 °C 1003.6 hPa North 24.6 km/h 35.2 km/h 91 % 0 mm
12:39 17.4 °C 15.9 °C 1003.6 hPa SSW 20.9 km/h 33.3 km/h 91 % 0 mm
12:44 17.4 °C 16.1 °C 1003.9 hPa SSW 20.6 km/h 22.5 km/h 92 % 0 mm
12:49 17.2 °C 15.7 °C 1003.9 hPa SSW 24.6 km/h 35.2 km/h 91 % 0 mm
12:54 17.2 °C 15.8 °C 1003.9 hPa South 11.4 km/h 22.2 km/h 92 % 0 mm
12:59 16.9 °C 15.4 °C 1003.9 hPa North 16.6 km/h 33.3 km/h 91 % 0 mm
13:04 16.6 °C 15.1 °C 1004.3 hPa SSW 21.4 km/h 27.8 km/h 91 % 0 mm
13:09 16.6 °C 15.3 °C 1004.3 hPa South 15.8 km/h 25.9 km/h 92 % 0 mm
13:14 16.6 °C 15.1 °C 1004.3 hPa North 17.7 km/h 29.6 km/h 91 % 0 mm
13:19 16.7 °C 15.3 °C 1004.3 hPa South 12.4 km/h 18.5 km/h 92 % 0 mm
13:24 16.7 °C 15.2 °C 1004.6 hPa SSW 11.9 km/h 31.5 km/h 91 % 0 mm
13:29 16.8 °C 15.3 °C 1004.6 hPa SSE 16.6 km/h 29.6 km/h 91 % 0 mm
13:34 16.8 °C 15.1 °C 1004.6 hPa SSE 9.8 km/h 22.2 km/h 90 % 0 mm
13:39 16.8 °C 15.2 °C 1004.6 hPa South 9.3 km/h 16.7 km/h 90 % 0 mm
13:44 16.8 °C 15.1 °C 1004.6 hPa SSE 10.1 km/h 18.5 km/h 90 % 0 mm
13:49 16.8 °C 14.9 °C 1004.6 hPa South 17.7 km/h 24.1 km/h 89 % 0 mm
13:54 16.9 °C 15.1 °C 1004.6 hPa South 16.7 km/h 20.4 km/h 89 % 0 mm
13:59 16.9 °C 14.9 °C 1004.6 hPa South 12.4 km/h 18.5 km/h 88 % 0 mm
14:04 17 °C 14.8 °C 1004.6 hPa SSW 16.9 km/h 24.1 km/h 87 % 0 mm
14:09 17.1 °C 15.1 °C 1004.6 hPa South 11.4 km/h 19.3 km/h 88 % 0 mm
14:14 17.1 °C 15.1 °C 1004.6 hPa South 12.7 km/h 24.1 km/h 88 % 0 mm
14:19 17.2 °C 15.2 °C 1004.6 hPa SSW 15.8 km/h 18.5 km/h 88 % 0 mm
14:24 17.3 °C 15.3 °C 1004.6 hPa South 12.7 km/h 20.4 km/h 88 % 0 mm
14:29 17.5 °C 15.3 °C 1004.6 hPa SSE 12.2 km/h 31.5 km/h 87 % 0 mm
14:34 17.7 °C 15.3 °C 1004.6 hPa South 13.4 km/h 18.5 km/h 86 % 0 mm
14:39 17.8 °C 15.4 °C 1004.6 hPa North 12.7 km/h 25.9 km/h 86 % 0 mm
14:44 17.8 °C 15.4 °C 1004.6 hPa South 12.7 km/h 18.5 km/h 86 % 0 mm
14:49 17.7 °C 15 °C 1004.6 hPa South 19.8 km/h 22.2 km/h 84 % 0 mm
14:54 17.8 °C 15.1 °C 1004.6 hPa SSE 14.8 km/h 22.2 km/h 84 % 0 mm
14:59 17.9 °C 14.9 °C 1004.6 hPa South 14.8 km/h 24.1 km/h 83 % 0 mm
15:04 18.1 °C 15.1 °C 1004.6 hPa South 15.1 km/h 24.1 km/h 83 % 0 mm
15:10 18.3 °C 14.9 °C 1004.6 hPa South 14.3 km/h 24.1 km/h 81 % 0 mm
15:15 18.4 °C 14.9 °C 1004.6 hPa SSE 15.4 km/h 20.4 km/h 80 % 0 mm
15:20 18.6 °C 15.1 °C 1004.6 hPa South 11.6 km/h 20.4 km/h 80 % 0 mm
15:25 18.6 °C 14.8 °C 1004.6 hPa SW 21.9 km/h 31.5 km/h 79 % 0 mm
15:30 18.5 °C 14.6 °C 1004.6 hPa South 14.2 km/h 25.7 km/h 78 % 0 mm
15:35 18.8 °C 14.3 °C 1004.6 hPa SSW 17.4 km/h 24.1 km/h 75 % 0 mm
15:40 18.8 °C 14.3 °C 1004.6 hPa SSE 17.1 km/h 22.2 km/h 75 % 0 mm
15:45 18.9 °C 14.6 °C 1004.6 hPa South 16.1 km/h 24.1 km/h 76 % 0 mm
15:50 18.9 °C 14.4 °C 1004.6 hPa SSE 15.4 km/h 31.5 km/h 75 % 0 mm
15:55 19.1 °C 14.5 °C 1004.6 hPa SSW 17.4 km/h 27.8 km/h 75 % 0 mm
16:00 19.3 °C 14.6 °C 1004.6 hPa SSW 18.5 km/h 25.9 km/h 74 % 0 mm
16:05 19.4 °C 14 °C 1004.6 hPa SSE 17.4 km/h 31.5 km/h 71 % 0 mm
16:10 19.3 °C 14.2 °C 1004.6 hPa South 16.4 km/h 20.4 km/h 72 % 0 mm
16:15 19.5 °C 14.3 °C 1004.6 hPa SSW 24.5 km/h 29.6 km/h 72 % 0 mm
16:20 19.6 °C 14.2 °C 1004.6 hPa SSE 18.2 km/h 31.5 km/h 71 % 0 mm
16:25 19.8 °C 14.4 °C 1004.6 hPa SSE 17.7 km/h 25.9 km/h 71 % 0 mm
16:30 20.3 °C 14.2 °C 1004.3 hPa South 11.6 km/h 18.5 km/h 68 % 0 mm
16:35 20.2 °C 14.1 °C 1004.3 hPa SSE 11.6 km/h 20.4 km/h 68 % 0 mm
16:40 20 °C 13.9 °C 1004.3 hPa SSW 14.6 km/h 20.4 km/h 68 % 0 mm
16:45 19.9 °C 13.6 °C 1004.6 hPa SSW 17.4 km/h 24.1 km/h 67 % 0 mm
16:50 19.9 °C 13.6 °C 1004.6 hPa South 17.1 km/h 24.1 km/h 67 % 0 mm
16:55 19.7 °C 13.4 °C 1004.6 hPa South 20.4 km/h 31.5 km/h 67 % 0 mm
17:00 19.6 °C 13.5 °C 1004.6 hPa SSW 17.5 km/h 22.5 km/h 68 % 0 mm
17:05 19.6 °C 13.5 °C 1004.6 hPa SSE 20.1 km/h 22.2 km/h 68 % 0 mm
17:10 19.7 °C 13.4 °C 1004.6 hPa South 18.3 km/h 27.8 km/h 67 % 0 mm
17:15 19.8 °C 13.2 °C 1004.6 hPa South 16.1 km/h 27.8 km/h 66 % 0 mm
17:20 19.8 °C 13.5 °C 1004.6 hPa South 15.6 km/h 25.9 km/h 67 % 0 mm
17:25 20.1 °C 13.3 °C 1004.6 hPa SSW 28.2 km/h 35.2 km/h 65 % 0 mm
17:30 20.2 °C 13.2 °C 1004.6 hPa SSE 23.8 km/h 31.5 km/h 64 % 0 mm
17:35 20.2 °C 12.9 °C 1004.6 hPa South 18.5 km/h 31.5 km/h 63 % 0 mm
17:40 20.2 °C 13.2 °C 1005 hPa South 22.5 km/h 29.6 km/h 64 % 0 mm
17:45 20.3 °C 13 °C 1005 hPa SSW 23.5 km/h 27.4 km/h 63 % 0 mm
17:50 20.6 °C 13.3 °C 1004.6 hPa SE 15.1 km/h 24.1 km/h 63 % 0 mm
17:55 20.5 °C 13.2 °C 1004.6 hPa South 16.7 km/h 24.1 km/h 63 % 0 mm
18:00 20.3 °C 13 °C 1004.6 hPa SSE 14 km/h 32.2 km/h 63 % 0 mm
18:02 20.2 °C 12.9 °C 1004.6 hPa SSE 19.3 km/h 31.5 km/h 63 % 0 mm
18:07 20.4 °C 12.6 °C 1005 hPa SSW 20.9 km/h 40.7 km/h 61 % 0 mm
18:12 19.9 °C 12.4 °C 1005 hPa South 26.2 km/h 31.5 km/h 62 % 0 mm
18:17 19.7 °C 12.5 °C 1005 hPa South 16.9 km/h 27.8 km/h 63 % 0 mm
18:22 19.6 °C 12.3 °C 1005 hPa SW 24.3 km/h 29.6 km/h 63 % 0 mm
18:27 19.7 °C 12.4 °C 1005 hPa South 18.7 km/h 25.9 km/h 63 % 0 mm
18:32 19.6 °C 12.3 °C 1005 hPa SSW 19.2 km/h 35.2 km/h 63 % 0 mm
18:37 19.4 °C 12.4 °C 1005.3 hPa South 11.4 km/h 18.5 km/h 64 % 0 mm
18:42 19.4 °C 12.6 °C 1005 hPa SSE 12.6 km/h 22.2 km/h 65 % 0 mm
18:47 19.6 °C 12.6 °C 1005.3 hPa South 14.5 km/h 20.4 km/h 64 % 0 mm
18:52 19.4 °C 12.4 °C 1005.3 hPa South 11.1 km/h 16.7 km/h 64 % 0 mm
18:57 19.5 °C 12.5 °C 1005.3 hPa South 10.9 km/h 18.5 km/h 64 % 0 mm
19:02 19.3 °C 12.3 °C 1005.3 hPa South 16.6 km/h 25.9 km/h 64 % 0 mm
19:07 18.9 °C 12.2 °C 1005.3 hPa South 15 km/h 24.1 km/h 65 % 0 mm
19:12 18.9 °C 12.4 °C 1005.3 hPa SSW 15.8 km/h 25.9 km/h 66 % 0 mm
19:17 18.8 °C 12.1 °C 1005.3 hPa SSE 18.3 km/h 25.9 km/h 65 % 0 mm
19:22 18.5 °C 11.8 °C 1005.6 hPa South 14.3 km/h 27.4 km/h 65 % 0 mm
19:27 18.2 °C 11.8 °C 1005.6 hPa South 23.7 km/h 33.3 km/h 66 % 0 mm
19:32 17.9 °C 11.7 °C 1005.6 hPa South 13.7 km/h 16.7 km/h 67 % 0 mm
19:37 17.8 °C 11.6 °C 1005.6 hPa SSW 16.6 km/h 25.9 km/h 67 % 0 mm
19:42 17.7 °C 11.7 °C 1005.6 hPa SSW 13.7 km/h 22.2 km/h 68 % 0 mm
19:47 17.6 °C 11.8 °C 1006 hPa South 21.6 km/h 31.5 km/h 69 % 0 mm
19:52 17.4 °C 11.8 °C 1006 hPa South 14.6 km/h 25.9 km/h 70 % 0 mm
19:57 17.3 °C 12 °C 1006 hPa South 15.4 km/h 25.9 km/h 71 % 0 mm
20:02 17.2 °C 11.9 °C 1006.3 hPa South 17.7 km/h 20.4 km/h 71 % 0 mm
20:07 16.9 °C 11.8 °C 1006.3 hPa SW 27.7 km/h 29 km/h 72 % 0 mm
20:12 16.7 °C 11.8 °C 1006.7 hPa SSW 24.1 km/h 29 km/h 73 % 0 mm
20:17 16.6 °C 11.9 °C 1006.7 hPa SSW 19.5 km/h 35.4 km/h 74 % 0 mm
20:22 16.6 °C 12.1 °C 1006.7 hPa South 19 km/h 25.7 km/h 75 % 0 mm
20:27 16.4 °C 12.2 °C 1006.7 hPa North 18.5 km/h 27.8 km/h 76 % 0 mm
20:32 16.4 °C 11.7 °C 1007 hPa SSE 18.7 km/h 25.9 km/h 74 % 0 mm
20:37 16.3 °C 11.7 °C 1007 hPa SSW 22.2 km/h 31.5 km/h 74 % 0 mm
20:42 16.4 °C 11.9 °C 1007 hPa SSW 25.9 km/h 35.2 km/h 75 % 0 mm
20:47 16.3 °C 12.1 °C 1007 hPa SSW 19.2 km/h 31.5 km/h 76 % 0 mm
20:52 16.2 °C 12.1 °C 1007.3 hPa SSW 19.6 km/h 29.6 km/h 77 % 0 mm
20:57 16 °C 12.2 °C 1007.3 hPa SSW 21.4 km/h 31.5 km/h 78 % 0 mm
21:02 16 °C 12.2 °C 1007.3 hPa South 18.3 km/h 27.4 km/h 78 % 0 mm
21:07 15.9 °C 11.9 °C 1007.3 hPa South 9.8 km/h 20.4 km/h 77 % 0 mm
21:12 15.9 °C 11.7 °C 1007.3 hPa SW 11.9 km/h 18.5 km/h 76 % 0 mm
21:17 15.9 °C 11.8 °C 1007.3 hPa South 17.1 km/h 20.4 km/h 77 % 0 mm
21:22 15.9 °C 11.8 °C 1007.7 hPa South 17.2 km/h 27.8 km/h 77 % 0 mm
21:27 15.8 °C 12 °C 1007.7 hPa South 14.8 km/h 20.4 km/h 78 % 0 mm
21:32 15.8 °C 11.9 °C 1007.7 hPa South 17.9 km/h 25.9 km/h 78 % 0 mm
21:37 15.7 °C 11.8 °C 1008 hPa South 15.4 km/h 29.6 km/h 78 % 0 mm
21:42 15.5 °C 11.9 °C 1008 hPa SSW 19.3 km/h 25.9 km/h 79 % 0 mm
21:47 15.4 °C 12.2 °C 1008 hPa South 15 km/h 27.8 km/h 81 % 0 mm
21:52 15.1 °C 12.1 °C 1008 hPa SSW 19.5 km/h 25.9 km/h 82 % 0 mm
21:57 14.8 °C 11.9 °C 1008.4 hPa South 18.2 km/h 25.9 km/h 83 % 0 mm
22:02 14.7 °C 12 °C 1008.4 hPa SSW 15.9 km/h 22.2 km/h 84 % 0 mm
22:07 14.5 °C 12 °C 1008.4 hPa South 19.5 km/h 31.5 km/h 85 % 0 mm
22:12 14.2 °C 11.8 °C 1008.7 hPa North 9.5 km/h 14.8 km/h 86 % 0 mm
22:17 13.9 °C 11.9 °C 1008.7 hPa South 17.5 km/h 25.7 km/h 88 % 0 mm
22:22 13.6 °C 11.8 °C 1008.7 hPa SSE 11.7 km/h 20.4 km/h 89 % 0 mm
22:27 13.3 °C 11.5 °C 1008.7 hPa South 14 km/h 19.3 km/h 89 % 0 mm
22:32 13.2 °C 11.6 °C 1008.7 hPa North 14.8 km/h 19.3 km/h 90 % 0 mm
22:37 13.3 °C 11.7 °C 1008.7 hPa North 12.1 km/h 20.4 km/h 90 % 0 mm
22:42 13.2 °C 11.6 °C 1008.7 hPa North 10 km/h 13 km/h 90 % 0 mm
22:47 13.2 °C 11.6 °C 1008.7 hPa North 17.1 km/h 22.2 km/h 90 % 0 mm
22:52 13.2 °C 11.6 °C 1008.7 hPa North 7.9 km/h 11.1 km/h 90 % 0 mm
22:57 13.2 °C 11.6 °C 1008.7 hPa South 8.5 km/h 13 km/h 90 % 0 mm
23:02 13.2 °C 11.4 °C 1008.7 hPa South 12.7 km/h 20.4 km/h 89 % 0 mm
23:07 13.3 °C 11.4 °C 1008.7 hPa South 17.7 km/h 24.1 km/h 88 % 0 mm
23:12 13.4 °C 11.3 °C 1008.7 hPa South 10.6 km/h 14.8 km/h 87 % 0 mm
23:17 13.4 °C 11.3 °C 1008.7 hPa North 12.1 km/h 20.4 km/h 87 % 0 mm
23:22 13.5 °C 11.4 °C 1008.7 hPa North 12.1 km/h 18.5 km/h 87 % 0 mm
23:27 13.5 °C 11.2 °C 1008.7 hPa South 13.5 km/h 20.4 km/h 86 % 0 mm
23:32 13.6 °C 11.3 °C 1009 hPa South 10.8 km/h 18.5 km/h 86 % 0 mm
23:37 13.6 °C 11.1 °C 1009 hPa SSE 13.4 km/h 18.5 km/h 85 % 0 mm
23:42 13.6 °C 11.1 °C 1009 hPa North 10 km/h 13 km/h 85 % 0 mm
23:47 13.6 °C 10.9 °C 1009 hPa North 14.8 km/h 20.4 km/h 84 % 0 mm
23:52 13.6 °C 10.9 °C 1008.7 hPa SSE 9.7 km/h 20.9 km/h 84 % 0 mm
23:57 13.6 °C 10.8 °C 1008.7 hPa SSE 18.2 km/h 22.2 km/h 83 % 0 mm
Ararat Weather
Compliments of Weather Underground - 2.25 mb
Click here to send mail.


ABOUT

Live weather data from Ararat, Victoria, Australia, 3377
Data uploaded from Cumulus every 5 minutes to Weather Underground.
This site then downloads the raw data for formatting and display.
Metric and imperial data can be displayed. Graphs and historical data available.
Includes Sun and Moon times and rain image live from BOM.

Check out Ararat Weather on Facebook, Twitter and Google +

Help support ongoing costs by checking out the ads





Follow @AraratWeather